Latest Weather Observations for South Channel Island

IDV60801

Issued at 12:02 am EST Monday 29 May 2017 (issued every 30 minutes, with the page automatically refreshed every 10 minutes)

About weather observations | Map of weather stations | Latest weather observations for VIC | Other Formats
Station Details ID: 086344 Name: SOUTH CHANNEL ISLAND Lat: -38.31 Lon: 144.80 Height: 9.0 m
Data from the previous 72 hours. | See also: Recent months for locations in Victoria
Date/Time
EST
Temp
°C
App
Temp
°C
Dew
Point
°C
Rel
Hum
%
Delta-T
°C
Wind Press
QNH
hPa
Press
MSL
hPa
Rain since
9am
mm
Dir  Spd
km/h
Gust
km/h
Spd
kts
Gust
kts
29/12:00am - - - - - W 32 39 17 21 - - -
 
Date/Time
EST
Temp
°C
App
Temp
°C
Dew
Point
°C
Rel
Hum
%
Delta-T
°C
Wind Press
QNH
hPa
Press
MSL
hPa
Rain since
9am
mm
Dir  Spd
km/h
Gust
km/h
Spd
kts
Gust
kts
28/11:30pm - - - - - W 35 43 19 23 - - -
28/11:00pm - - - - - WNW 44 50 24 27 - - -
28/10:30pm - - - - - WNW 35 44 19 24 - - -
28/10:00pm - - - - - W 43 52 23 28 - - -
28/09:30pm - - - - - WNW 50 57 27 31 - - -
28/09:00pm - - - - - WNW 44 54 24 29 - - -
28/08:30pm - - - - - WNW 46 54 25 29 - - -
28/08:00pm - - - - - W 44 52 24 28 - - -
28/07:30pm - - - - - WNW 43 48 23 26 - - -
28/07:00pm - - - - - WNW 39 46 21 25 - - -
28/06:30pm - - - - - WNW 43 52 23 28 - - -
28/06:00pm - - - - - WNW 43 50 23 27 - - -
28/05:30pm - - - - - WNW 48 57 26 31 - - -
28/05:00pm - - - - - W 43 52 23 28 - - -
28/04:30pm - - - - - W 44 56 24 30 - - -
28/04:00pm - - - - - W 48 56 26 30 - - -
28/03:30pm - - - - - WNW 48 56 26 30 - - -
28/03:00pm - - - - - WNW 41 48 22 26 - - -
28/02:30pm - - - - - WNW 43 54 23 29 - - -
28/02:00pm - - - - - WNW 50 57 27 31 - - -
28/01:30pm - - - - - W 43 50 23 27 - - -
28/01:00pm - - - - - WNW 46 54 25 29 - - -
28/12:30pm - - - - - WNW 41 48 22 26 - - -
28/12:00pm - - - - - WNW 43 50 23 27 - - -
28/11:30am - - - - - WNW 39 48 21 26 - - -
28/11:00am - - - - - NW 35 41 19 22 - - -
28/10:30am - - - - - WNW 41 50 22 27 - - -
28/10:00am - - - - - WNW 35 44 19 24 - - -
28/09:30am - - - - - WNW 39 50 21 27 - - -
28/09:00am - - - - - WNW 37 50 20 27 - - -
28/08:30am - - - - - WNW 39 48 21 26 - - -
28/08:00am - - - - - WNW 41 50 22 27 - - -
28/07:30am - - - - - WNW 41 48 22 26 - - -
28/07:00am - - - - - NW 39 48 21 26 - - -
28/06:30am - - - - - WNW 35 44 19 24 - - -
28/06:00am - - - - - NW 39 50 21 27 - - -
28/05:30am - - - - - NW 41 50 22 27 - - -
28/05:00am - - - - - NW 43 54 23 29 - - -
28/04:30am - - - - - NW 43 57 23 31 - - -
28/04:00am - - - - - NNW 35 44 19 24 - - -
28/03:30am - - - - - NNW 39 46 21 25 - - -
28/03:00am - - - - - NNW 37 43 20 23 - - -
28/02:30am - - - - - NNW 33 39 18 21 - - -
28/02:00am - - - - - NNW 33 39 18 21 - - -
28/01:30am - - - - - NW 46 54 25 29 - - -
28/01:00am - - - - - WNW 44 52 24 28 - - -
28/12:30am - - - - - WNW 37 43 20 23 - - -
28/12:00am - - - - - WNW 44 59 24 32 - - -
 
Date/Time
EST
Temp
°C
App
Temp
°C
Dew
Point
°C
Rel
Hum
%
Delta-T
°C
Wind Press
QNH
hPa
Press
MSL
hPa
Rain since
9am
mm
Dir  Spd
km/h
Gust
km/h
Spd
kts
Gust
kts
27/11:59pm - - - - - WNW 46 61 25 33 - - -
27/11:53pm - - - - - W 57 76 31 41 - - -
27/11:39pm - - - - - NNW 56 78 30 42 - - -
27/11:37pm - - - - - N 56 72 30 39 - - -
27/11:30pm - - - - - N 63 82 34 44 - - -
27/11:23pm - - - - - N 59 82 32 44 - - -
27/11:00pm - - - - - N 56 69 30 37 - - -
27/10:30pm - - - - - N 54 61 29 33 - - -
27/10:00pm - - - - - N 54 61 29 33 - - -
27/09:30pm - - - - - N 48 57 26 31 - - -
27/09:00pm - - - - - N 37 44 20 24 - - -
27/08:30pm - - - - - N 48 54 26 29 - - -
27/08:00pm - - - - - N 48 57 26 31 - - -
27/07:30pm - - - - - N 52 57 28 31 - - -
27/07:00pm - - - - - N 50 57 27 31 - - -
27/06:30pm - - - - - N 44 52 24 28 - - -
27/06:00pm - - - - - N 41 48 22 26 - - -
27/05:30pm - - - - - NNE 39 43 21 23 - - -
27/05:00pm - - - - - NNE 43 48 23 26 - - -
27/04:30pm - - - - - N 44 50 24 27 - - -
27/04:00pm - - - - - N 39 48 21 26 - - -
27/03:30pm - - - - - N 39 44 21 24 - - -
27/03:00pm - - - - - N 43 52 23 28 - - -
27/02:30pm - - - - - N 43 48 23 26 - - -
27/02:00pm - - - - - N 39 48 21 26 - - -
27/01:30pm - - - - - N 39 48 21 26 - - -
27/01:00pm - - - - - N 43 50 23 27 - - -
27/12:30pm - - - - - N 37 41 20 22 - - -
27/12:00pm - - - - - NNE 33 41 18 22 - - -
27/11:30am - - - - - NNE 33 37 18 20 - - -
27/11:00am - - - - - N 37 43 20 23 - - -
27/10:30am - - - - - N 44 52 24 28 - - -
27/10:00am - - - - - N 46 52 25 28 - - -
27/09:30am - - - - - N 44 52 24 28 - - -
27/09:00am - - - - - N 44 52 24 28 - - -
27/08:30am - - - - - N 43 50 23 27 - - -
27/08:00am - - - - - N 41 50 22 27 - - -
27/07:30am - - - - - N 39 46 21 25 - - -
27/07:00am - - - - - N 41 48 22 26 - - -
27/06:30am - - - - - N 39 46 21 25 - - -
27/06:00am - - - - - N 43 48 23 26 - - -
27/05:30am - - - - - N 39 46 21 25 - - -
27/05:00am - - - - - N 41 48 22 26 - - -
27/04:30am - - - - - N 43 50 23 27 - - -
27/04:00am - - - - - N 41 48 22 26 - - -
27/03:30am - - - - - N 39 44 21 24 - - -
27/03:00am - - - - - N 37 46 20 25 - - -
27/02:30am - - - - - N 33 41 18 22 - - -
27/02:00am - - - - - N 33 37 18 20 - - -
27/01:30am - - - - - N 33 37 18 20 - - -
27/01:00am - - - - - N 24 32 13 17 - - -
27/12:30am - - - - - N 19 22 10 12 - - -
27/12:00am - - - - - NNW 22 24 12 13 - - -
 
Date/Time
EST
Temp
°C
App
Temp
°C
Dew
Point
°C
Rel
Hum
%
Delta-T
°C
Wind Press
QNH
hPa
Press
MSL
hPa
Rain since
9am
mm
Dir  Spd
km/h
Gust
km/h
Spd
kts
Gust
kts
26/11:30pm - - - - - N 26 28 14 15 - - -
26/11:00pm - - - - - N 28 30 15 16 - - -
26/10:30pm - - - - - N 24 28 13 15 - - -
26/10:00pm - - - - - NE 20 22 11 12 - - -
26/09:30pm - - - - - ENE 19 22 10 12 - - -
26/09:00pm - - - - - ENE 19 19 10 10 - - -
26/08:30pm - - - - - ENE 15 17 8 9 - - -
26/08:00pm - - - - - NE 11 15 6 8 - - -
26/07:30pm - - - - - ENE 13 15 7 8 - - -
26/07:00pm - - - - - ENE 11 15 6 8 - - -
26/06:30pm - - - - - E 9 11 5 6 - - -
26/06:00pm - - - - - E 9 11 5 6 - - -
26/05:30pm - - - - - ESE 9 11 5 6 - - -
26/05:00pm - - - - - E 9 11 5 6 - - -
26/04:30pm - - - - - E 13 15 7 8 - - -
26/04:00pm - - - - - E 9 13 5 7 - - -
26/03:30pm - - - - - ENE 9 11 5 6 - - -
26/03:00pm - - - - - NE 9 11 5 6 - - -
26/02:30pm - - - - - NNE 6 9 3 5 - - -
26/02:00pm - - - - - CALM 0 6 0 3 - - -
26/01:30pm - - - - - W 6 9 3 5 - - -
26/01:00pm - - - - - W 11 11 6 6 - - -
26/12:30pm - - - - - W 13 17 7 9 - - -
26/12:00pm - - - - - W 15 19 8 10 - - -
26/11:30am - - - - - W 15 19 8 10 - - -
26/11:00am - - - - - WNW 15 17 8 9 - - -
26/10:30am - - - - - WNW 15 17 8 9 - - -
26/10:00am - - - - - WNW 15 17 8 9 - - -
26/09:30am - - - - - WNW 17 19 9 10 - - -
26/09:00am - - - - - WNW 17 19 9 10 - - -
26/08:30am - - - - - WNW 17 19 9 10 - - -
26/08:00am - - - - - WNW 20 22 11 12 - - -
26/07:30am - - - - - WNW 24 28 13 15 - - -
26/07:00am - - - - - W 24 28 13 15 - - -
26/06:30am - - - - - WNW 26 30 14 16 - - -
26/06:00am - - - - - WNW 24 26 13 14 - - -
26/05:30am - - - - - WNW 22 26 12 14 - - -
26/05:00am - - - - - WSW 20 26 11 14 - - -
26/04:30am - - - - - WSW 17 20 9 11 - - -
26/04:00am - - - - - SW 22 26 12 14 - - -
26/03:30am - - - - - WSW 26 30 14 16 - - -
26/03:00am - - - - - W 15 17 8 9 - - -
26/02:30am - - - - - SW 19 26 10 14 - - -
26/02:00am - - - - - SW 30 33 16 18 - - -
26/01:30am - - - - - W 15 17 8 9 - - -
26/01:00am - - - - - WSW 13 17 7 9 - - -
26/12:30am - - - - - WSW 15 19 8 10 - - -

Other Formats:

Comma delimited format used in spreadsheet applications
http://www.bom.gov.au/fwo/IDV60801/IDV60801.94853.axf

JavaScript Object Notation format (JSON) in row-major order
http://www.bom.gov.au/fwo/IDV60801/IDV60801.94853.json